createdAt,value
2023-05-19T00:00:19.625Z,3.17
2023-05-19T00:04:25.493Z,3.40
2023-05-19T00:08:32.322Z,3.47
2023-05-19T00:12:39.228Z,3.40
2023-05-19T00:16:45.158Z,3.73
2023-05-19T00:20:52.357Z,3.30
2023-05-19T00:24:57.826Z,3.80
2023-05-19T00:29:03.561Z,3.63
2023-05-19T00:33:09.077Z,6.20
2023-05-19T00:37:14.608Z,5.73
2023-05-19T00:41:21.063Z,5.03
2023-05-19T00:45:26.582Z,4.47
2023-05-19T00:49:32.130Z,4.90
2023-05-19T00:53:37.592Z,4.13
2023-05-19T00:57:44.104Z,3.33
2023-05-19T01:01:50.175Z,3.33
2023-05-19T01:05:55.646Z,3.53
2023-05-19T01:10:01.176Z,3.87
2023-05-19T01:14:06.758Z,3.77
2023-05-19T01:18:21.020Z,4.83
2023-05-19T01:22:43.479Z,4.50
2023-05-19T01:27:28.003Z,4.70
2023-05-19T01:31:36.778Z,4.83
2023-05-19T01:35:44.133Z,3.63
2023-05-19T01:39:50.708Z,3.70
2023-05-19T01:43:57.486Z,3.00
2023-05-19T01:48:05.088Z,3.70
2023-05-19T01:52:10.717Z,3.60
2023-05-19T01:56:32.427Z,4.17
2023-05-19T02:00:54.558Z,3.90
2023-05-19T02:05:31.865Z,3.63
2023-05-19T02:09:48.702Z,3.30
2023-05-19T02:13:57.351Z,3.30
2023-05-19T02:18:04.650Z,3.50
2023-05-19T02:22:10.483Z,3.30
2023-05-19T02:26:15.972Z,3.30
2023-05-19T02:30:21.475Z,2.90
2023-05-19T02:34:26.935Z,3.20
2023-05-19T02:38:32.643Z,3.40
2023-05-19T02:42:38.180Z,3.30
2023-05-19T02:46:43.753Z,3.40
2023-05-19T02:50:49.310Z,3.50
2023-05-19T02:54:54.763Z,3.30
2023-05-19T02:59:00.897Z,3.30
2023-05-19T03:03:06.513Z,2.90
2023-05-19T03:07:14.180Z,3.33
2023-05-19T03:11:19.722Z,3.60
2023-05-19T03:15:25.257Z,3.50
2023-05-19T03:19:32.511Z,3.80
2023-05-19T03:23:37.985Z,3.40
2023-05-19T03:27:43.899Z,3.10
2023-05-19T03:31:49.467Z,3.57
2023-05-19T03:35:54.933Z,3.33
2023-05-19T03:40:00.554Z,3.27
2023-05-19T03:44:06.146Z,3.50
2023-05-19T03:48:12.568Z,3.63
2023-05-19T03:52:18.234Z,2.83
2023-05-19T03:56:25.037Z,3.37
2023-05-19T04:00:31.073Z,3.57
2023-05-19T04:04:38.074Z,3.47
2023-05-19T04:08:44.327Z,3.53
2023-05-19T04:12:50.166Z,3.47
2023-05-19T04:16:55.950Z,3.90
2023-05-19T04:21:01.757Z,3.93
2023-05-19T04:25:08.256Z,3.50
2023-05-19T04:29:17.916Z,4.17
2023-05-19T04:33:23.622Z,3.60
2023-05-19T04:37:29.973Z,4.60
2023-05-19T04:41:35.716Z,4.03
2023-05-19T04:45:42.586Z,3.50
2023-05-19T04:49:48.252Z,4.60
2023-05-19T04:53:57.642Z,3.43
2023-05-19T04:58:03.184Z,3.60
2023-05-19T05:02:08.681Z,3.20
2023-05-19T05:06:14.193Z,3.37
2023-05-19T05:10:19.691Z,3.27
2023-05-19T05:14:25.635Z,3.60
2023-05-19T05:18:31.511Z,3.30
2023-05-19T05:22:38.723Z,4.00
2023-05-19T05:26:44.506Z,4.10
2023-05-19T05:30:50.409Z,4.07
2023-05-19T05:34:56.093Z,4.43
2023-05-19T05:39:02.505Z,3.97
2023-05-19T05:43:07.968Z,3.57
2023-05-19T05:47:14.258Z,3.07
2023-05-19T05:51:22.948Z,3.20
2023-05-19T05:55:29.073Z,3.07
2023-05-19T05:59:34.553Z,3.03
2023-05-19T06:03:42.740Z,2.80
2023-05-19T06:07:48.311Z,3.67
2023-05-19T06:11:53.841Z,3.00
2023-05-19T06:16:01.716Z,2.40
2023-05-19T06:20:11.136Z,2.73
2023-05-19T06:24:16.578Z,2.57
2023-05-19T06:28:22.157Z,2.87
2023-05-19T06:32:27.766Z,2.87
2023-05-19T06:36:35.209Z,2.63
2023-05-19T06:40:41.194Z,2.33
2023-05-19T06:44:46.642Z,2.77
2023-05-19T06:48:52.147Z,2.77
2023-05-19T06:52:58.442Z,2.90
2023-05-19T06:57:04.427Z,2.80
2023-05-19T07:01:09.929Z,2.80
2023-05-19T07:05:15.411Z,2.43
2023-05-19T07:09:21.449Z,2.90
2023-05-19T07:13:27.729Z,2.23
2023-05-19T07:17:33.251Z,2.10
2023-05-19T07:21:38.862Z,1.93
2023-05-19T07:25:44.340Z,2.23
2023-05-19T07:29:49.803Z,2.00
2023-05-19T07:33:55.318Z,2.27
2023-05-19T07:38:00.884Z,2.33
2023-05-19T07:42:06.394Z,2.10
2023-05-19T07:46:11.943Z,2.07
2023-05-19T07:50:17.497Z,2.00
2023-05-19T07:54:23.094Z,2.30
2023-05-19T07:58:28.622Z,2.03
2023-05-19T08:02:34.400Z,2.30
2023-05-19T08:06:40.161Z,2.70
2023-05-19T08:10:46.594Z,2.20
2023-05-19T08:14:52.471Z,2.20
2023-05-19T08:18:58.176Z,2.20
2023-05-19T08:23:03.806Z,2.20
2023-05-19T08:27:09.458Z,2.43
2023-05-19T08:31:14.992Z,2.20
2023-05-19T08:35:20.623Z,2.13
2023-05-19T08:39:27.296Z,2.00
2023-05-19T08:43:32.813Z,2.50
2023-05-19T08:47:38.716Z,2.70
2023-05-19T08:52:15.479Z,2.47
2023-05-19T08:56:25.223Z,2.60
2023-05-19T09:00:31.226Z,2.37
2023-05-19T09:04:39.226Z,2.13
2023-05-19T09:08:45.082Z,2.70
2023-05-19T09:12:51.454Z,3.10
2023-05-19T09:16:57.041Z,1.93
2023-05-19T09:21:03.205Z,2.00
2023-05-19T09:25:29.190Z,1.83
2023-05-19T09:29:34.812Z,2.30
2023-05-19T09:33:45.546Z,1.90
2023-05-19T09:37:53.324Z,3.10
2023-05-19T09:41:58.973Z,2.07
2023-05-19T09:46:12.976Z,2.30
2023-05-19T09:50:20.110Z,2.13
2023-05-19T09:54:29.822Z,1.97
2023-05-19T09:58:36.353Z,2.50
2023-05-19T10:02:45.336Z,2.20
2023-05-19T10:06:54.033Z,3.00
2023-05-19T10:11:00.154Z,2.20
2023-05-19T10:15:11.995Z,1.87
2023-05-19T10:19:21.041Z,2.50
2023-05-19T10:23:27.043Z,2.20
2023-05-19T10:27:36.859Z,2.30
2023-05-19T10:31:43.648Z,3.13
2023-05-19T10:36:11.256Z,2.43
2023-05-19T10:40:32.266Z,2.30
2023-05-19T10:44:49.442Z,2.30
2023-05-19T10:48:55.805Z,2.27
2023-05-19T10:53:03.007Z,2.60
2023-05-19T10:57:10.071Z,2.10
2023-05-19T11:01:18.270Z,2.30
2023-05-19T11:05:30.294Z,2.07
2023-05-19T11:09:41.051Z,2.43
2023-05-19T11:13:56.706Z,2.90
2023-05-19T11:18:04.666Z,2.40
2023-05-19T11:22:13.153Z,2.77
2023-05-19T11:26:43.094Z,1.90
2023-05-19T11:30:50.709Z,2.50
2023-05-19T11:34:57.752Z,2.37
2023-05-19T11:39:04.414Z,2.00
2023-05-19T11:43:10.268Z,2.17
2023-05-19T11:47:17.242Z,2.20
2023-05-19T11:51:22.913Z,2.43
2023-05-19T11:55:28.509Z,2.13
2023-05-19T11:59:36.438Z,1.70
2023-05-19T12:03:42.325Z,2.07
2023-05-19T12:07:49.714Z,2.37
2023-05-19T12:11:55.774Z,1.97
2023-05-19T12:16:01.892Z,2.70
2023-05-19T12:20:09.314Z,2.20
2023-05-19T12:24:15.097Z,3.27
2023-05-19T12:28:21.017Z,2.10
2023-05-19T12:32:28.834Z,2.20
2023-05-19T12:36:34.627Z,1.93
2023-05-19T12:40:40.179Z,1.80
2023-05-19T12:44:54.751Z,2.00
2023-05-19T12:49:01.130Z,1.73
2023-05-19T12:53:11.377Z,1.83
2023-05-19T12:57:17.379Z,1.90
2023-05-19T13:01:24.316Z,2.00
2023-05-19T13:05:40.436Z,2.10
2023-05-19T13:09:45.951Z,2.33
2023-05-19T13:13:51.479Z,2.10
2023-05-19T13:17:57.035Z,2.27
2023-05-19T13:22:03.551Z,1.83
2023-05-19T13:26:09.126Z,1.80
2023-05-19T13:30:16.209Z,1.97
2023-05-19T13:34:21.886Z,2.10
2023-05-19T13:38:27.737Z,2.20
2023-05-19T13:42:33.719Z,2.10
2023-05-19T13:46:45.222Z,1.90
2023-05-19T13:51:05.004Z,1.97
2023-05-19T13:55:10.526Z,1.73
2023-05-19T13:59:19.274Z,1.90
2023-05-19T14:03:25.147Z,1.67
2023-05-19T14:07:31.209Z,1.40
2023-05-19T14:11:36.840Z,1.70
2023-05-19T14:15:42.439Z,1.40
2023-05-19T14:19:48.052Z,1.97
2023-05-19T14:23:53.527Z,1.67
2023-05-19T14:27:59.049Z,1.50
2023-05-19T14:32:05.892Z,1.77
2023-05-19T14:36:11.817Z,1.40
2023-05-19T14:40:17.375Z,1.37
2023-05-19T14:44:22.920Z,1.60
2023-05-19T14:48:28.451Z,1.33
2023-05-19T14:52:33.952Z,1.47
2023-05-19T14:56:39.452Z,1.47
2023-05-19T15:00:44.953Z,1.27
2023-05-19T15:04:51.661Z,1.20
2023-05-19T15:08:57.237Z,1.80
2023-05-19T15:13:04.397Z,1.20
2023-05-19T15:17:10.073Z,1.70
2023-05-19T15:21:15.696Z,1.20
2023-05-19T15:25:21.176Z,1.33
2023-05-19T15:29:26.933Z,1.47
2023-05-19T15:33:32.421Z,1.70
2023-05-19T15:37:37.904Z,1.87
2023-05-19T15:41:43.392Z,1.43
2023-05-19T15:45:48.874Z,1.93
2023-05-19T15:49:54.360Z,2.27
2023-05-19T15:53:59.867Z,1.97
2023-05-19T15:58:05.415Z,2.40
2023-05-19T16:02:11.721Z,1.70
2023-05-19T16:06:17.740Z,1.80
2023-05-19T16:10:23.250Z,1.90
2023-05-19T16:14:32.030Z,1.90
2023-05-19T16:18:37.545Z,1.40
2023-05-19T16:22:43.012Z,1.70
2023-05-19T16:26:48.671Z,1.60
2023-05-19T16:30:59.446Z,1.53
2023-05-19T16:35:05.805Z,1.27
2023-05-19T16:39:11.568Z,1.80
2023-05-19T16:43:17.083Z,1.60
2023-05-19T16:47:22.592Z,1.60
2023-05-19T16:51:28.103Z,1.20
2023-05-19T16:55:33.600Z,1.50
2023-05-19T16:59:39.060Z,1.30
2023-05-19T17:03:44.613Z,1.40
2023-05-19T17:07:50.124Z,2.00
2023-05-19T17:11:56.191Z,1.50
2023-05-19T17:16:02.768Z,1.40
2023-05-19T17:20:09.198Z,1.70
2023-05-19T17:24:14.662Z,1.60
2023-05-19T17:28:20.174Z,1.50
2023-05-19T17:32:28.343Z,2.17
2023-05-19T17:36:34.030Z,1.57
2023-05-19T17:40:41.955Z,1.20
2023-05-19T17:44:47.648Z,2.00
2023-05-19T17:48:53.176Z,1.43
2023-05-19T17:52:58.975Z,1.43
2023-05-19T17:57:12.493Z,2.10
2023-05-19T18:01:20.521Z,1.63
2023-05-19T18:05:26.994Z,1.20
2023-05-19T18:09:38.904Z,1.80
2023-05-19T18:13:44.569Z,1.30
2023-05-19T18:17:50.117Z,1.40
2023-05-19T18:21:56.225Z,1.50
2023-05-19T18:26:01.675Z,1.57
2023-05-19T18:30:07.750Z,1.67
2023-05-19T18:34:14.042Z,1.47
2023-05-19T18:38:19.595Z,1.30
2023-05-19T18:42:25.121Z,2.00
2023-05-19T18:46:30.684Z,1.53
2023-05-19T18:50:36.558Z,1.43
2023-05-19T18:54:42.923Z,1.30
2023-05-19T18:58:48.400Z,1.50
2023-05-19T19:02:54.119Z,1.60
2023-05-19T19:06:59.729Z,1.37
2023-05-19T19:11:09.248Z,1.63
2023-05-19T19:15:14.763Z,2.10
2023-05-19T19:19:20.733Z,1.77
2023-05-19T19:23:26.353Z,1.80
2023-05-19T19:27:35.352Z,1.40
2023-05-19T19:31:41.086Z,1.63
2023-05-19T19:35:46.994Z,1.60
2023-05-19T19:39:52.497Z,1.60
2023-05-19T19:43:57.990Z,1.23
2023-05-19T19:48:03.517Z,1.80
2023-05-19T19:52:09.080Z,1.70
2023-05-19T19:56:14.553Z,1.93
2023-05-19T20:00:20.302Z,1.40
2023-05-19T20:04:26.710Z,1.70
2023-05-19T20:08:32.220Z,1.80
2023-05-19T20:12:37.715Z,1.67
2023-05-19T20:16:43.308Z,1.73
2023-05-19T20:20:48.864Z,1.70
2023-05-19T20:24:54.423Z,1.60
2023-05-19T20:29:00.128Z,1.50
2023-05-19T20:33:05.882Z,1.60
2023-05-19T20:37:11.484Z,1.50
2023-05-19T20:41:16.952Z,1.70
2023-05-19T20:45:22.493Z,1.50
2023-05-19T20:49:27.939Z,1.60
2023-05-19T20:53:33.455Z,1.50
2023-05-19T20:57:38.926Z,1.47
2023-05-19T21:01:46.077Z,1.53
2023-05-19T21:05:51.668Z,1.80
2023-05-19T21:09:57.669Z,1.40
2023-05-19T21:14:06.006Z,2.03
2023-05-19T21:18:12.432Z,1.50
2023-05-19T21:22:18.007Z,1.53
2023-05-19T21:26:23.592Z,1.57
2023-05-19T21:30:29.089Z,1.40
2023-05-19T21:34:34.585Z,1.40
2023-05-19T21:38:40.077Z,1.70
2023-05-19T21:42:46.086Z,1.40
2023-05-19T21:46:51.660Z,1.30
2023-05-19T21:50:57.729Z,1.43
2023-05-19T21:55:03.375Z,1.70
2023-05-19T21:59:09.715Z,1.70
2023-05-19T22:03:15.288Z,1.60
2023-05-19T22:07:26.760Z,1.90
2023-05-19T22:11:32.320Z,1.50
2023-05-19T22:15:39.308Z,1.50
2023-05-19T22:19:46.061Z,1.40
2023-05-19T22:23:52.746Z,1.60
2023-05-19T22:27:59.000Z,1.50
2023-05-19T22:32:07.641Z,1.70
2023-05-19T22:36:13.712Z,1.87
2023-05-19T22:40:19.341Z,1.40
2023-05-19T22:44:25.483Z,1.30
2023-05-19T22:48:31.626Z,1.40
2023-05-19T22:52:37.484Z,1.40
2023-05-19T22:56:48.000Z,1.50
2023-05-19T23:00:53.533Z,1.73
2023-05-19T23:04:59.119Z,1.80
2023-05-19T23:09:04.899Z,1.40
2023-05-19T23:13:11.911Z,1.30
2023-05-19T23:17:17.400Z,1.43
2023-05-19T23:21:22.870Z,1.30
2023-05-19T23:25:28.727Z,1.67
2023-05-19T23:29:34.287Z,1.53
2023-05-19T23:33:39.793Z,1.43
2023-05-19T23:37:45.255Z,1.10
2023-05-19T23:41:51.049Z,1.40
2023-05-19T23:45:56.547Z,1.10
2023-05-19T23:50:02.092Z,1.60
2023-05-19T23:54:07.657Z,1.77
2023-05-19T23:58:13.174Z,1.20
